Time;durP1;ratioP1;P1;durP2;ratioP2;P2;SDS_P1;SDS_P2;PMS_P1;PMS_P2;Temp;Humidity;BMP_temperature;BMP_pressure;BME280_temperature;BME280_humidity;BME280_pressure;Samples;Min_cycle;Max_cycle;Signal;HPM_P1;HPM_P2
2023/03/04 00:01:24;;;;;;;21.60;10.73;;;;;;;1.48;100.00;99770.06;4996326;28;20639;-79
2023/03/04 00:03:53;;;;;;;20.73;10.77;;;;;;;1.38;100.00;99776.31;5005007;28;20219;-79
2023/03/04 00:06:23;;;;;;;22.63;11.57;;;;;;;1.20;100.00;99763.56;5002358;28;20252;-79
2023/03/04 00:08:51;;;;;;;22.10;12.07;;;;;;;1.37;100.00;99770.25;4998746;28;20221;-79
2023/03/04 00:11:19;;;;;;;22.83;12.87;;;;;;;1.48;100.00;99771.81;4992903;28;20221;-79
2023/03/04 00:13:47;;;;;;;22.57;12.33;;;;;;;1.56;100.00;99775.16;5000271;28;20196;-80
2023/03/04 00:16:16;;;;;;;20.30;11.43;;;;;;;1.48;100.00;99770.06;5000969;28;20411;-80
2023/03/04 00:18:45;;;;;;;25.20;12.73;;;;;;;1.41;100.00;99766.69;5002114;28;20196;-79
2023/03/04 00:21:14;;;;;;;27.53;14.17;;;;;;;1.50;100.00;99764.78;5002057;28;20207;-79
2023/03/04 00:23:42;;;;;;;23.33;13.67;;;;;;;1.58;100.00;99768.13;5000192;28;20296;-79
2023/03/04 00:26:12;;;;;;;24.57;12.90;;;;;;;1.52;100.00;99765.63;5001915;28;20203;-79
2023/03/04 00:28:40;;;;;;;24.13;12.80;;;;;;;1.60;100.00;99767.22;5023286;28;20255;-79
2023/03/04 00:31:09;;;;;;;24.17;11.87;;;;;;;1.51;100.00;99767.38;4991182;28;20229;-79
2023/03/04 00:33:39;;;;;;;23.33;12.53;;;;;;;1.52;100.00;99771.69;4991223;28;20220;-79
2023/03/04 00:36:10;;;;;;;26.33;13.13;;;;;;;1.29;100.00;99766.03;4991253;28;20206;-79
2023/03/04 00:38:39;;;;;;;26.40;13.27;;;;;;;1.17;100.00;99764.50;4994320;28;20199;-79
2023/03/04 00:41:08;;;;;;;24.73;13.83;;;;;;;1.38;100.00;99773.72;4998733;28;20237;-79
2023/03/04 00:43:36;;;;;;;24.30;13.93;;;;;;;1.35;100.00;99766.81;4874529;29;20239;-79
2023/03/04 00:46:05;;;;;;;22.70;12.43;;;;;;;1.49;100.00;99768.31;4874790;29;20199;-79
2023/03/04 00:48:34;;;;;;;24.47;12.23;;;;;;;1.44;100.00;99758.78;4872681;29;20219;-79
2023/03/04 00:51:03;;;;;;;24.20;13.20;;;;;;;1.48;100.00;99766.59;4872660;29;20192;-79
2023/03/04 00:53:33;;;;;;;24.07;12.50;;;;;;;1.26;100.00;99758.25;4872241;29;20202;-79
2023/03/04 00:56:02;;;;;;;22.13;11.93;;;;;;;1.33;100.00;99752.03;4868981;29;20217;-79
2023/03/04 00:58:30;;;;;;;21.40;12.40;;;;;;;1.33;100.00;99752.88;4870586;29;20278;-78
2023/03/04 01:00:59;;;;;;;22.87;12.07;;;;;;;1.31;100.00;99757.28;4895551;28;20212;-78
2023/03/04 01:03:30;;;;;;;22.83;12.17;;;;;;;1.29;100.00;99756.44;5002021;28;20292;-79
2023/03/04 01:05:58;;;;;;;26.40;12.07;;;;;;;1.29;100.00;99747.75;5001080;28;20199;-79
2023/03/04 01:08:27;;;;;;;22.80;11.43;;;;;;;1.46;100.00;99752.69;4994504;28;20215;-79
2023/03/04 01:10:57;;;;;;;19.57;11.77;;;;;;;1.47;100.00;99750.06;4995294;28;20653;-78
2023/03/04 01:13:26;;;;;;;23.43;12.73;;;;;;;1.34;100.00;99740.69;4991421;28;20200;-79
2023/03/04 01:15:54;;;;;;;23.30;12.07;;;;;;;1.34;100.00;99748.53;5001912;28;20363;-78
2023/03/04 01:18:22;;;;;;;21.83;11.97;;;;;;;1.30;100.00;99742.50;4998601;28;20195;-79
2023/03/04 01:20:51;;;;;;;21.67;12.23;;;;;;;1.28;100.00;99740.84;4994659;28;20200;-79
2023/03/04 01:23:19;;;;;;;23.40;12.67;;;;;;;1.30;100.00;99745.13;4992870;28;20199;-78
2023/03/04 01:25:48;;;;;;;22.63;11.90;;;;;;;1.43;100.00;99741.41;4995941;28;20223;-78
2023/03/04 01:28:19;;;;;;;23.23;12.87;;;;;;;1.43;100.00;99736.19;5000093;28;20611;-79
2023/03/04 01:30:47;;;;;;;23.53;12.80;;;;;;;1.55;100.00;99724.69;4999258;28;20225;-79
2023/03/04 01:33:16;;;;;;;20.87;12.13;;;;;;;1.46;100.00;99724.84;4998519;28;20199;-79
2023/03/04 01:35:44;;;;;;;25.67;12.93;;;;;;;1.43;100.00;99724.88;4999530;28;20199;-79
2023/03/04 01:38:13;;;;;;;23.23;12.73;;;;;;;1.18;100.00;99721.88;5001043;28;20245;-78
2023/03/04 01:40:41;;;;;;;22.63;11.93;;;;;;;1.38;100.00;99716.28;5002019;28;20272;-79
2023/03/04 01:43:25;;;;;;;20.73;11.70;;;;;;;1.41;100.00;99711.88;4999526;28;20198;-79
2023/03/04 01:45:55;;;;;;;20.57;11.93;;;;;;;1.54;100.00;99715.09;4995968;28;20222;-78
2023/03/04 01:48:27;;;;;;;20.23;11.80;;;;;;;1.30;100.00;99707.75;4990820;28;20199;-79
2023/03/04 01:50:58;;;;;;;23.07;13.03;;;;;;;1.29;100.00;99706.03;5000870;28;20199;-79
2023/03/04 01:53:28;;;;;;;25.80;12.70;;;;;;;1.35;100.00;99703.28;4998193;28;20271;-78
2023/03/04 01:55:58;;;;;;;24.37;12.40;;;;;;;1.15;100.00;99707.09;4992956;28;20654;-78
2023/03/04 01:58:30;;;;;;;23.00;13.27;;;;;;;1.10;100.00;99706.34;5002999;28;20195;-79
2023/03/04 02:00:59;;;;;;;25.97;12.97;;;;;;;1.00;100.00;99707.38;5001508;28;20199;-78
2023/03/04 02:03:28;;;;;;;22.10;12.30;;;;;;;1.11;100.00;99697.63;5003006;28;20195;-79
2023/03/04 02:05:56;;;;;;;23.73;12.03;;;;;;;1.28;100.00;99696.47;4999222;28;20280;-79
2023/03/04 02:08:25;;;;;;;22.67;12.40;;;;;;;1.30;100.00;99705.13;4994186;28;20205;-79
2023/03/04 02:10:55;;;;;;;21.90;12.03;;;;;;;1.33;100.00;99700.69;5000567;28;20703;-78
2023/03/04 02:13:23;;;;;;;24.30;12.80;;;;;;;1.24;100.00;99689.56;4990605;28;20198;-79
2023/03/04 02:15:53;;;;;;;21.03;12.20;;;;;;;1.27;100.00;99690.41;5000424;28;20199;-79
2023/03/04 02:18:23;;;;;;;23.67;12.37;;;;;;;1.29;100.00;99685.16;4994039;28;20203;-78
2023/03/04 02:21:04;;;;;;;20.67;12.30;;;;;;;1.37;100.00;99681.50;4990413;28;20254;-79
2023/03/04 02:23:38;;;;;;;22.07;12.33;;;;;;;1.44;100.00;99677.88;5000704;28;20203;-78
2023/03/04 02:26:14;;;;;;;18.17;11.20;;;;;;;1.51;100.00;99680.38;4998836;28;20227;-78
2023/03/04 02:28:44;;;;;;;21.10;11.80;;;;;;;1.58;100.00;99672.41;4995374;28;20207;-79
2023/03/04 02:31:23;;;;;;;22.23;11.97;;;;;;;1.70;100.00;99680.00;4990325;28;20187;-79
2023/03/04 02:33:55;;;;;;;21.10;11.63;;;;;;;1.72;100.00;99669.50;4990717;28;20211;-79
2023/03/04 02:36:24;;;;;;;24.93;13.90;;;;;;;1.60;100.00;99673.22;4999745;28;20195;-79
2023/03/04 02:38:54;;;;;;;24.10;12.10;;;;;;;1.51;100.00;99664.72;4995880;28;20199;-78
2023/03/04 02:41:26;;;;;;;18.27;11.20;;;;;;;1.54;100.00;99665.50;4998059;28;20223;-78
2023/03/04 02:43:56;;;;;;;20.97;11.53;;;;;;;1.54;100.00;99662.03;5069943;28;20195;-79
2023/03/04 02:46:24;;;;;;;20.37;11.57;;;;;;;1.49;100.00;99661.28;5067328;28;20212;-79
2023/03/04 02:48:53;;;;;;;21.00;11.67;;;;;;;1.65;100.00;99667.94;5063199;28;20193;-79
2023/03/04 02:51:22;;;;;;;22.20;11.70;;;;;;;1.60;100.00;99668.00;5007829;28;20253;-78
2023/03/04 02:53:50;;;;;;;22.20;11.93;;;;;;;1.71;100.00;99666.03;5001854;28;20202;-78
2023/03/04 02:56:19;;;;;;;21.60;12.10;;;;;;;1.65;100.00;99666.19;5008707;28;20198;-79
2023/03/04 02:58:49;;;;;;;21.77;11.73;;;;;;;1.65;100.00;99667.94;5007761;28;20194;-79
2023/03/04 03:01:17;;;;;;;20.77;11.50;;;;;;;1.63;100.00;99662.72;5002700;28;20210;-78
2023/03/04 03:03:45;;;;;;;22.27;11.97;;;;;;;1.62;100.00;99657.53;5012002;28;20190;-78
2023/03/04 03:06:14;;;;;;;22.77;12.47;;;;;;;1.65;100.00;99666.19;5011860;28;20685;-78
2023/03/04 03:08:42;;;;;;;21.17;11.67;;;;;;;1.69;100.00;99662.63;5018443;28;20298;-79
2023/03/04 03:11:11;;;;;;;20.27;11.53;;;;;;;1.68;100.00;99665.25;5029384;28;20261;-78
2023/03/04 03:13:41;;;;;;;20.27;11.57;;;;;;;1.70;100.00;99660.84;5025601;28;20267;-79
2023/03/04 03:16:11;;;;;;;21.37;11.13;;;;;;;1.64;100.00;99654.03;5007378;28;20365;-79
2023/03/04 03:18:40;;;;;;;19.30;11.10;;;;;;;1.71;100.00;99655.59;5004163;28;20355;-79
2023/03/04 03:21:08;;;;;;;19.83;11.07;;;;;;;1.83;100.00;99654.47;4999406;28;20715;-79
2023/03/04 03:23:36;;;;;;;21.80;11.67;;;;;;;1.76;100.00;99650.31;4995711;28;20211;-79
2023/03/04 03:26:05;;;;;;;21.73;12.10;;;;;;;1.63;100.00;99659.25;5004595;28;20225;-78
2023/03/04 03:28:34;;;;;;;20.07;10.97;;;;;;;1.63;100.00;99654.88;5005831;28;20240;-79
2023/03/04 03:31:02;;;;;;;18.30;10.63;;;;;;;1.67;100.00;99653.97;5001362;28;20195;-79
2023/03/04 03:33:32;;;;;;;18.23;10.67;;;;;;;1.75;100.00;99650.34;5003476;28;20408;-79
2023/03/04 03:36:01;;;;;;;21.60;11.90;;;;;;;1.69;100.00;99649.56;5003791;28;20264;-78
2023/03/04 03:38:29;;;;;;;18.87;11.07;;;;;;;1.80;100.00;99646.72;5000171;28;20203;-79
2023/03/04 03:40:58;;;;;;;20.30;10.87;;;;;;;1.87;100.00;99648.31;4992664;28;20767;-79
2023/03/04 03:43:26;;;;;;;21.23;11.53;;;;;;;1.90;100.00;99650.88;5004549;28;20256;-79
2023/03/04 03:45:55;;;;;;;19.97;10.67;;;;;;;1.82;100.00;99649.31;4992646;28;20310;-79
2023/03/04 03:48:23;;;;;;;20.90;10.60;;;;;;;1.48;100.00;99650.00;5004284;28;20207;-79
2023/03/04 03:50:55;;;;;;;18.47;11.07;;;;;;;1.43;100.00;99644.84;4992814;28;20206;-79
2023/03/04 03:53:23;;;;;;;21.17;11.20;;;;;;;1.77;100.00;99648.56;4991441;28;20191;-79
2023/03/04 03:55:52;;;;;;;19.20;10.93;;;;;;;1.61;100.00;99645.38;5004592;28;20203;-78
2023/03/04 03:58:20;;;;;;;22.30;11.17;;;;;;;1.92;100.00;99645.59;4992933;28;20199;-79
2023/03/04 04:00:50;;;;;;;20.53;11.43;;;;;;;1.76;100.00;99642.47;5001772;28;20195;-79
2023/03/04 04:03:18;;;;;;;21.30;10.70;;;;;;;1.83;100.00;99643.19;4999450;28;20230;-79
2023/03/04 04:05:47;;;;;;;17.77;11.10;;;;;;;1.74;100.00;99636.44;4998884;28;20265;-79
2023/03/04 04:08:18;;;;;;;20.93;11.47;;;;;;;1.82;100.00;99634.50;5002648;28;20199;-79
2023/03/04 04:10:46;;;;;;;21.00;11.10;;;;;;;1.65;100.00;99632.25;5005012;28;20284;-78
2023/03/04 04:13:15;;;;;;;22.20;11.30;;;;;;;1.58;100.00;99642.84;4991918;28;20197;-79
2023/03/04 04:15:43;;;;;;;21.37;11.57;;;;;;;1.57;100.00;99638.50;5000945;28;20199;-78
2023/03/04 04:18:11;;;;;;;23.47;12.40;;;;;;;1.61;100.00;99635.78;5002623;28;20203;-79
2023/03/04 04:20:41;;;;;;;22.23;12.30;;;;;;;1.76;100.00;99633.78;5002431;28;20218;-79
2023/03/04 04:23:09;;;;;;;20.67;11.57;;;;;;;1.81;100.00;99630.16;4999473;28;20191;-79
2023/03/04 04:25:38;;;;;;;19.73;11.77;;;;;;;1.74;100.00;99628.59;5003176;28;20288;-79
2023/03/04 04:28:07;;;;;;;20.27;12.60;;;;;;;1.72;100.00;99633.81;5001025;28;20244;-79
2023/03/04 04:30:36;;;;;;;20.47;10.83;;;;;;;1.82;100.00;99626.66;5002519;28;20207;-79
2023/03/04 04:33:08;;;;;;;18.23;10.60;;;;;;;1.90;100.00;99619.53;4996829;28;20210;-79
2023/03/04 04:35:38;;;;;;;21.53;11.33;;;;;;;1.85;100.00;99628.38;5003145;28;20662;-78
2023/03/04 04:38:08;;;;;;;19.37;11.57;;;;;;;1.83;100.00;99623.16;5001169;28;20278;-79
2023/03/04 04:40:38;;;;;;;19.50;10.77;;;;;;;1.83;100.00;99627.50;5000028;28;20304;-79
2023/03/04 04:43:07;;;;;;;21.67;12.03;;;;;;;1.75;100.00;99621.63;5004675;28;20195;-79
2023/03/04 04:45:35;;;;;;;18.23;10.67;;;;;;;1.76;100.00;99618.13;5000200;28;20215;-79
2023/03/04 04:48:03;;;;;;;18.80;11.13;;;;;;;1.72;100.00;99626.00;5003244;28;20203;-79
2023/03/04 04:50:31;;;;;;;19.17;11.10;;;;;;;1.57;100.00;99628.94;5004581;28;20199;-79
2023/03/04 04:53:00;;;;;;;20.93;11.30;;;;;;;1.72;100.00;99622.50;5002080;28;20249;-79
2023/03/04 04:55:28;;;;;;;18.57;11.27;;;;;;;1.77;100.00;99627.66;5000498;28;20812;-78
2023/03/04 04:57:58;;;;;;;17.80;11.27;;;;;;;1.73;100.00;99632.94;4999001;28;20273;-79
2023/03/04 05:00:27;;;;;;;16.10;10.60;;;;;;;1.82;100.00;99624.03;5002492;28;20249;-79
2023/03/04 05:02:55;;;;;;;22.13;10.70;;;;;;;1.80;100.00;99622.38;5001282;28;20207;-78
2023/03/04 05:05:23;;;;;;;19.53;11.47;;;;;;;1.79;100.00;99629.34;5004551;28;20226;-78
2023/03/04 05:07:51;;;;;;;17.57;11.20;;;;;;;1.78;100.00;99618.94;5001359;28;20272;-78
2023/03/04 05:10:20;;;;;;;17.37;10.33;;;;;;;1.80;100.00;99623.22;5004191;28;20256;-79
2023/03/04 05:12:48;;;;;;;19.30;11.47;;;;;;;1.88;100.00;99615.22;5007667;28;20203;-78
2023/03/04 05:15:18;;;;;;;17.50;10.20;;;;;;;1.88;100.00;99623.06;5006561;28;20211;-80
2023/03/04 05:17:46;;;;;;;19.10;10.90;;;;;;;1.84;100.00;99622.28;5002137;28;20200;-78
2023/03/04 05:20:15;;;;;;;21.77;11.13;;;;;;;1.89;100.00;99616.94;4999628;28;20207;-79
2023/03/04 05:22:43;;;;;;;19.77;10.47;;;;;;;1.80;100.00;99623.22;4991316;28;20264;-78
2023/03/04 05:25:11;;;;;;;20.40;11.27;;;;;;;1.98;100.00;99614.13;4999166;28;20203;-79
2023/03/04 05:27:39;;;;;;;20.40;11.97;;;;;;;1.89;100.00;99622.16;5001458;28;20223;-79
2023/03/04 05:30:09;;;;;;;21.53;12.57;;;;;;;2.11;100.00;99618.19;4993945;28;20207;-78
2023/03/04 05:32:39;;;;;;;21.33;11.80;;;;;;;2.00;100.00;99620.19;5001025;28;20198;-78
2023/03/04 05:35:09;;;;;;;21.20;11.67;;;;;;;1.98;100.00;99615.00;5001570;28;20258;-78
2023/03/04 05:37:37;;;;;;;19.33;10.90;;;;;;;2.07;100.00;99627.00;4991221;28;20264;-78
2023/03/04 05:40:08;;;;;;;21.60;11.47;;;;;;;2.06;100.00;99627.03;4999009;28;20248;-79
2023/03/04 05:42:36;;;;;;;21.57;11.17;;;;;;;2.04;100.00;99624.47;5001580;28;20661;-78
2023/03/04 05:45:06;;;;;;;18.53;11.20;;;;;;;1.94;100.00;99621.19;5001724;28;20238;-79
2023/03/04 05:47:34;;;;;;;18.13;10.80;;;;;;;2.02;100.00;99621.00;5000589;28;20215;-79
2023/03/04 05:50:04;;;;;;;18.77;11.73;;;;;;;2.13;100.00;99620.78;5001985;28;20196;-79
2023/03/04 05:52:32;;;;;;;19.10;11.13;;;;;;;2.16;100.00;99629.41;4998015;28;20211;-79
2023/03/04 05:55:01;;;;;;;18.97;10.73;;;;;;;2.11;100.00;99620.78;4995699;28;20215;-79
2023/03/04 05:57:29;;;;;;;20.57;11.77;;;;;;;2.16;100.00;99624.19;4990927;28;20248;-79
2023/03/04 05:59:59;;;;;;;19.30;11.03;;;;;;;2.21;100.00;99627.53;4999553;28;20211;-79
2023/03/04 06:02:28;;;;;;;20.33;12.10;;;;;;;2.21;100.00;99638.00;5001699;28;20225;-79
2023/03/04 06:04:56;;;;;;;20.87;12.03;;;;;;;2.36;100.00;99631.56;4998236;28;20207;-79
2023/03/04 06:07:30;;;;;;;22.53;12.87;;;;;;;2.27;100.00;99632.63;4994700;28;20229;-79
2023/03/04 06:09:58;;;;;;;20.73;12.27;;;;;;;2.23;100.00;99635.38;4999770;28;20227;-79
2023/03/04 06:12:27;;;;;;;19.73;11.40;;;;;;;2.18;100.00;99631.97;4999239;28;20199;-79
2023/03/04 06:14:55;;;;;;;19.80;11.77;;;;;;;2.19;100.00;99638.94;4990607;28;20207;-79
2023/03/04 06:17:24;;;;;;;20.00;12.47;;;;;;;2.27;100.00;99632.63;5000606;28;20195;-79
2023/03/04 06:19:55;;;;;;;18.57;11.33;;;;;;;2.32;100.00;99643.00;4996841;28;20198;-79
2023/03/04 06:22:24;;;;;;;22.70;13.13;;;;;;;2.42;100.00;99646.25;5019635;28;20594;-79
2023/03/04 06:24:53;;;;;;;18.17;11.70;;;;;;;2.41;100.00;99639.28;4995743;28;20191;-79
2023/03/04 06:27:22;;;;;;;20.63;12.00;;;;;;;2.39;100.00;99646.31;4996801;28;20264;-79
2023/03/04 06:29:51;;;;;;;19.23;12.23;;;;;;;2.52;100.00;99643.41;4999310;28;20191;-79
2023/03/04 06:32:19;;;;;;;22.07;11.63;;;;;;;2.56;100.00;99638.94;5001952;28;20229;-79
2023/03/04 06:34:47;;;;;;;20.30;12.20;;;;;;;2.59;100.00;99646.69;4996934;28;20210;-79
2023/03/04 06:37:15;;;;;;;21.90;12.40;;;;;;;2.53;100.00;99642.50;4999389;28;20263;-79
2023/03/04 06:39:46;;;;;;;24.87;12.70;;;;;;;2.58;100.00;99643.22;4993827;28;20232;-79
2023/03/04 06:42:16;;;;;;;23.40;13.30;;;;;;;2.46;100.00;99643.53;4996624;28;20268;-80
2023/03/04 06:44:45;;;;;;;21.57;12.27;;;;;;;2.39;100.00;99649.78;4996313;28;20201;-79
2023/03/04 06:47:13;;;;;;;22.43;11.97;;;;;;;2.45;100.00;99654.88;4997691;28;20738;-79
2023/03/04 06:49:42;;;;;;;22.23;11.20;;;;;;;2.51;100.00;99656.47;4998355;28;20213;-79
2023/03/04 06:52:11;;;;;;;23.93;12.47;;;;;;;2.66;100.00;99645.66;4999721;28;20203;-79
2023/03/04 06:54:40;;;;;;;23.93;12.13;;;;;;;2.73;100.00;99660.31;5001579;28;20248;-79
2023/03/04 06:57:08;;;;;;;21.53;11.87;;;;;;;2.79;100.00;99661.91;4999458;28;20199;-79
2023/03/04 06:59:38;;;;;;;20.50;11.83;;;;;;;2.88;100.00;99664.31;4998468;28;20199;-78
2023/03/04 07:02:06;;;;;;;20.03;11.73;;;;;;;2.87;100.00;99658.22;4990134;28;20198;-79
2023/03/04 07:04:35;;;;;;;19.00;11.87;;;;;;;2.92;100.00;99668.59;4999317;28;20686;-79
2023/03/04 07:07:03;;;;;;;22.80;11.67;;;;;;;2.90;100.00;99675.63;4999055;28;20215;-79
2023/03/04 07:09:32;;;;;;;19.83;11.97;;;;;;;3.02;100.00;99667.44;4998925;28;20241;-79
2023/03/04 07:12:01;;;;;;;22.47;11.90;;;;;;;2.81;100.00;99674.09;4989941;28;20187;-79
2023/03/04 07:14:29;;;;;;;22.63;12.23;;;;;;;2.84;100.00;99678.38;4999912;28;20207;-78
2023/03/04 07:16:59;;;;;;;18.20;12.17;;;;;;;2.92;100.00;99686.03;4996523;28;20654;-79
2023/03/04 07:19:28;;;;;;;23.40;12.00;;;;;;;2.92;100.00;99681.66;4992987;28;20201;-79
2023/03/04 07:21:57;;;;;;;21.00;11.93;;;;;;;2.98;100.00;99680.63;4995338;28;20203;-79
2023/03/04 07:24:25;;;;;;;20.53;10.63;;;;;;;3.07;100.00;99683.03;5001482;28;20263;-79
2023/03/04 07:26:54;;;;;;;19.53;11.53;;;;;;;3.18;100.00;99683.59;4990030;28;20225;-79
2023/03/04 07:29:22;;;;;;;19.73;11.83;;;;;;;3.24;100.00;99682.59;5001658;28;20199;-79
2023/03/04 07:31:51;;;;;;;22.03;11.50;;;;;;;3.22;100.00;99693.13;4994353;28;20421;-79
2023/03/04 07:34:22;;;;;;;21.90;11.87;;;;;;;3.24;100.00;99683.47;4996992;28;20240;-79
2023/03/04 07:36:50;;;;;;;19.80;11.37;;;;;;;3.32;100.00;99694.59;5000486;28;20191;-79
2023/03/04 07:39:19;;;;;;;21.13;10.93;;;;;;;3.44;100.00;99685.56;5022865;28;20277;-79
2023/03/04 07:41:47;;;;;;;22.80;12.00;;;;;;;3.24;100.00;99693.94;5022744;28;20225;-79
2023/03/04 07:44:16;;;;;;;21.03;12.03;;;;;;;3.27;100.00;99691.22;5029528;28;20240;-79
2023/03/04 07:46:44;;;;;;;22.70;10.70;;;;;;;3.11;100.00;99688.16;5023886;28;20197;-79
2023/03/04 07:49:13;;;;;;;21.43;11.07;;;;;;;3.20;100.00;99687.06;5027693;28;20225;-79
2023/03/04 07:51:43;;;;;;;19.53;10.73;;;;;;;3.16;100.00;99683.66;5033127;28;20202;-78
2023/03/04 07:54:11;;;;;;;21.77;10.57;;;;;;;3.21;100.00;99691.41;5019319;28;20216;-79
2023/03/04 07:56:40;;;;;;;18.37;11.47;;;;;;;3.15;100.00;99688.94;5022355;28;20211;-79
2023/03/04 07:59:08;;;;;;;16.07;9.97;;;;;;;3.42;100.00;99684.75;5000580;28;20195;-79
2023/03/04 08:01:38;;;;;;;23.07;11.30;;;;;;;3.34;100.00;99697.19;5003686;28;20367;-79
2023/03/04 08:04:07;;;;;;;25.07;11.60;;;;;;;3.42;100.00;99689.97;5002483;28;20689;-79
2023/03/04 08:06:36;;;;;;;24.63;11.60;;;;;;;3.34;100.00;99697.19;5000537;28;20242;-79
2023/03/04 08:09:07;;;;;;;20.07;11.40;;;;;;;3.43;100.00;99689.94;5000481;28;20695;-79
2023/03/04 08:11:37;;;;;;;22.23;11.43;;;;;;;3.56;100.00;99686.97;4994678;28;20278;-79
2023/03/04 08:14:08;;;;;;;20.33;11.23;;;;;;;3.57;100.00;99689.59;5006269;28;20642;-78
2023/03/04 08:16:36;;;;;;;23.27;10.93;;;;;;;3.50;100.00;99689.78;4998521;28;20245;-79
2023/03/04 08:19:06;;;;;;;20.77;10.83;;;;;;;3.39;100.00;99690.06;4999831;28;20221;-79
2023/03/04 08:21:35;;;;;;;20.70;11.43;;;;;;;3.49;100.00;99686.31;5050928;28;20263;-79
2023/03/04 08:24:06;;;;;;;19.60;11.37;;;;;;;3.57;100.00;99686.06;5046944;28;20193;-79
2023/03/04 08:26:40;;;;;;;19.50;10.17;;;;;;;3.71;100.00;99683.97;5050070;28;20208;-79
2023/03/04 08:29:11;;;;;;;22.73;11.13;;;;;;;3.85;100.00;99687.03;4973746;28;20729;-79
2023/03/04 08:31:40;;;;;;;18.17;10.40;;;;;;;3.98;100.00;99680.56;4970531;28;20361;-78
2023/03/04 08:34:10;;;;;;;20.33;10.67;;;;;;;4.06;100.00;99682.97;4970339;28;20227;-79
2023/03/04 08:36:39;;;;;;;19.83;10.73;;;;;;;4.06;100.00;99682.97;4967475;28;20203;-79
2023/03/04 08:39:12;;;;;;;24.33;10.77;;;;;;;4.12;100.00;99680.16;4967622;28;20251;-79
2023/03/04 08:41:40;;;;;;;24.83;10.67;;;;;;;4.17;100.00;99680.88;4973757;28;20267;-79
2023/03/04 08:44:10;;;;;;;24.20;10.83;;;;;;;4.18;100.00;99684.38;4971218;28;20208;-79
2023/03/04 08:46:40;;;;;;;21.37;10.97;;;;;;;4.11;100.00;99688.06;4993664;28;20207;-79
2023/03/04 08:49:08;;;;;;;21.40;10.00;;;;;;;4.26;100.00;99683.25;5009454;28;20218;-79
2023/03/04 08:51:37;;;;;;;22.53;10.33;;;;;;;4.24;100.00;99687.63;5009243;28;20197;-79
2023/03/04 08:54:06;;;;;;;18.43;9.77;;;;;;;4.33;100.00;99689.13;4998483;28;20195;-79
2023/03/04 08:56:36;;;;;;;20.43;8.97;;;;;;;4.28;100.00;99693.69;5000324;28;20203;-79
2023/03/04 08:59:04;;;;;;;19.60;8.90;;;;;;;4.48;100.00;99695.69;4996936;28;20195;-79
2023/03/04 09:01:32;;;;;;;18.07;8.33;;;;;;;4.44;100.00;99687.06;4997501;28;20210;-79
2023/03/04 09:04:00;;;;;;;15.63;8.90;;;;;;;4.24;100.00;99687.63;5000728;28;20192;-79
2023/03/04 09:06:29;;;;;;;20.47;8.30;;;;;;;4.27;100.00;99684.09;4999703;28;20195;-79
2023/03/04 09:08:57;;;;;;;18.30;7.77;;;;;;;4.43;100.00;99685.31;4998045;28;20682;-79
2023/03/04 09:11:25;;;;;;;17.00;8.20;;;;;;;4.17;100.00;99687.91;4996327;28;20199;-79
2023/03/04 09:13:55;;;;;;;21.47;7.90;;;;;;;4.51;100.00;99687.72;5002698;28;20361;-79
2023/03/04 09:16:23;;;;;;;15.13;7.37;;;;;;;4.53;100.00;99686.75;4991917;28;20270;-79
2023/03/04 09:18:52;;;;;;;19.50;8.10;;;;;;;4.63;100.00;99683.84;4997028;28;20191;-80
2023/03/04 09:21:20;;;;;;;18.33;7.33;;;;;;;4.54;100.00;99688.50;4997861;28;20195;-80
2023/03/04 09:23:49;;;;;;;18.33;7.43;;;;;;;4.50;100.00;99689.50;5000366;28;20211;-79
2023/03/04 09:26:21;;;;;;;20.83;7.63;;;;;;;4.53;100.00;99685.91;5002190;28;20191;-79
2023/03/04 09:28:54;;;;;;;15.23;6.90;;;;;;;4.48;100.00;99691.31;4995718;28;20230;-79
2023/03/04 09:31:24;;;;;;;17.87;7.00;;;;;;;4.61;100.00;99691.78;5001146;28;20268;-79
2023/03/04 09:33:53;;;;;;;20.80;7.20;;;;;;;4.75;100.00;99688.75;4993156;28;20237;-79
2023/03/04 09:36:22;;;;;;;12.03;6.47;;;;;;;4.64;100.00;99691.69;4998576;28;20207;-79
2023/03/04 09:38:51;;;;;;;15.67;6.63;;;;;;;4.78;100.00;99684.25;5000254;28;20199;-79
2023/03/04 09:41:23;;;;;;;12.80;5.90;;;;;;;4.79;100.00;99685.09;5000363;28;20504;-79
2023/03/04 09:43:56;;;;;;;15.07;5.93;;;;;;;4.86;100.00;99682.22;5001283;28;20202;-79
2023/03/04 09:46:32;;;;;;;11.87;5.40;;;;;;;4.98;100.00;99683.59;4998643;28;20201;-79
2023/03/04 09:49:01;;;;;;;17.53;5.73;;;;;;;4.94;100.00;99683.75;4990887;28;20323;-79
2023/03/04 09:51:44;;;;;;;13.67;4.90;;;;;;;4.96;100.00;99682.78;4994088;28;20207;-79
2023/03/04 09:54:22;;;;;;;14.60;5.43;;;;;;;5.04;100.00;99688.66;4997261;28;20192;-79
2023/03/04 09:56:53;;;;;;;12.60;5.10;;;;;;;5.12;100.00;99677.91;4998247;28;20351;-79
2023/03/04 09:59:28;;;;;;;10.73;5.23;;;;;;;5.10;100.00;99677.94;4998424;28;20250;-79
2023/03/04 10:01:59;;;;;;;10.23;5.13;;;;;;;5.12;100.00;99686.63;4996472;28;20240;-79
2023/03/04 10:04:35;;;;;;;14.67;5.63;;;;;;;5.09;100.00;99685.84;5000201;28;20207;-79
2023/03/04 10:07:05;;;;;;;11.30;4.40;;;;;;;5.20;100.00;99680.25;4998207;28;20195;-79
2023/03/04 10:09:45;;;;;;;15.17;4.80;;;;;;;5.29;100.00;99678.16;5046642;28;20220;-79
2023/03/04 10:12:17;;;;;;;14.67;5.13;;;;;;;5.24;100.00;99676.63;5043624;28;20201;-79
2023/03/04 10:14:56;;;;;;;11.33;4.67;;;;;;;5.35;100.00;99675.34;5046527;28;20201;-79
2023/03/04 10:17:31;;;;;;;11.63;4.03;;;;;;;5.45;100.00;99673.25;5050563;28;20344;-79
2023/03/04 10:20:05;;;;;;;10.80;4.60;;;;;;;5.51;100.00;99665.16;5041553;28;20192;-79
2023/03/04 10:22:36;;;;;;;10.87;4.07;;;;;;;5.47;100.00;99668.78;5048039;28;20197;-79
2023/03/04 10:25:20;;;;;;;10.17;3.97;;;;;;;5.44;100.00;99668.91;5043475;28;20277;-79
2023/03/04 10:27:54;;;;;;;9.83;3.27;;;;;;;5.58;100.00;99664.00;5017654;28;20195;-79
2023/03/04 10:30:41;;;;;;;10.27;3.17;;;;;;;5.81;100.00;99657.09;4997885;28;20285;-79
2023/03/04 10:33:12;;;;;;;11.13;3.43;;;;;;;5.93;100.00;99654.91;4995470;28;20210;-79
2023/03/04 10:35:45;;;;;;;7.57;2.90;;;;;;;5.96;100.00;99652.16;5000352;28;20252;-79
2023/03/04 10:38:13;;;;;;;8.20;3.13;;;;;;;6.04;100.00;99651.84;4989303;28;20195;-79
2023/03/04 10:40:43;;;;;;;7.27;3.20;;;;;;;6.04;100.00;99646.59;4990459;28;20235;-79
2023/03/04 10:43:16;;;;;;;5.67;2.63;;;;;;;6.30;100.00;99638.59;5002117;28;20199;-79
2023/03/04 10:45:47;;;;;;;7.50;2.30;;;;;;;6.31;100.00;99631.53;5000434;28;20313;-79
2023/03/04 10:48:25;;;;;;;5.80;2.47;;;;;;;6.41;100.00;99638.16;5000110;28;20213;-80
2023/03/04 10:50:53;;;;;;;6.97;2.40;;;;;;;6.32;100.00;99635.88;4990194;28;20221;-79
2023/03/04 10:53:32;;;;;;;7.33;2.40;;;;;;;6.35;100.00;99621.75;4999200;28;20203;-79
2023/03/04 10:56:01;;;;;;;7.00;2.13;;;;;;;6.69;100.00;99635.28;4994020;28;20222;-79
2023/03/04 10:58:30;;;;;;;7.73;2.53;;;;;;;6.80;100.00;99617.28;4990100;28;20278;-79
2023/03/04 11:01:03;;;;;;;7.80;2.30;;;;;;;6.71;100.00;99622.06;5000122;28;20236;-79
2023/03/04 11:03:35;;;;;;;9.00;2.27;;;;;;;6.64;100.00;99620.59;4990010;28;20195;-79
2023/03/04 11:06:11;;;;;;;4.13;2.00;;;;;;;6.66;100.00;99619.63;4994169;28;20223;-79
2023/03/04 11:08:41;;;;;;;5.60;2.10;;;;;;;6.65;100.00;99606.50;4995549;28;20222;-79
2023/03/04 11:11:23;;;;;;;9.87;2.47;;;;;;;6.79;100.00;99604.19;4994186;28;20219;-79
2023/03/04 11:13:56;;;;;;;6.87;2.40;;;;;;;6.82;100.00;99604.03;5003068;28;20634;-79
2023/03/04 11:16:29;;;;;;;5.73;1.83;;;;;;;6.88;100.00;99607.28;4998068;28;20195;-78
2023/03/04 11:19:04;;;;;;;4.27;2.47;;;;;;;7.02;100.00;99601.44;4999623;28;20611;-79
2023/03/04 11:21:39;;;;;;;3.87;1.80;;;;;;;7.36;100.00;99592.94;4997520;28;20209;-79
2023/03/04 11:24:14;;;;;;;5.60;1.83;;;;;;;7.02;100.00;99605.84;4996260;28;20203;-79
2023/03/04 11:27:02;;;;;;;4.63;1.80;;;;;;;7.23;100.00;99601.44;4995892;28;20278;-79
2023/03/04 11:29:35;;;;;;;5.00;1.60;;;;;;;7.26;100.00;99598.69;5011442;28;20234;-79
2023/03/04 11:32:10;;;;;;;4.77;1.73;;;;;;;7.37;100.00;99592.00;5005722;28;20294;-79